La rose des vents
Donnes mto: Semaine 04/08/08 - 10/08/08 (S 32)
Date Horaire Temp. E. Hum. E. P.atmo. Pluie Vent 1mn Direction Ensoleilleme Ev.Tr. Solaire P. de rose Temp au vent Rafales
04/08/2008 00:00 21,6 C 87 % 1013,7 hPa 0,0 l/m 1,7 km/h (1 Bft) E 0,00 h 0,025 mm 0 W/m 19,3 C 21,6 C 3,2 km/h (1 Bft)
04/08/2008 01:00 21,6 C 84 % 1013,3 hPa 0,0 l/m 5,9 km/h (2 Bft) O 0,00 h 0,025 mm 0 W/m 18,7 C 21,6 C 7,4 km/h (2 Bft)
04/08/2008 02:00 21,7 C 77 % 1012,7 hPa 0,0 l/m 5,8 km/h (2 Bft) O 0,00 h 0,025 mm 0 W/m 17,5 C 21,7 C 7,6 km/h (2 Bft)
04/08/2008 03:00 21,6 C 75 % 1012,2 hPa 0,0 l/m 3,5 km/h (1 Bft) O-NO 0,00 h 0,051 mm 0 W/m 16,9 C 21,6 C 5,0 km/h (1 Bft)
04/08/2008 04:00 20,9 C 77 % 1012,1 hPa 0,0 l/m 0,0 km/h (0 Bft) O-NO 0,00 h 0,051 mm 0 W/m 16,7 C 20,9 C 0,2 km/h (0 Bft)
04/08/2008 05:00 20,6 C 78 % 1012,1 hPa 0,0 l/m 1,1 km/h (0 Bft) O-NO 0,00 h 0,025 mm 0 W/m 16,7 C 20,6 C 2,0 km/h (1 Bft)
04/08/2008 06:00 20,7 C 78 % 1012,1 hPa 0,0 l/m 0,4 km/h (0 Bft) NO 0,02 h 0,000 mm 12 W/m 16,7 C 20,7 C 1,1 km/h (0 Bft)
04/08/2008 07:00 21,1 C 78 % 1012,3 hPa 0,0 l/m 1,5 km/h (1 Bft) N-NE 0,15 h 0,025 mm 55 W/m 17,0 C 21,1 C 3,2 km/h (1 Bft)
04/08/2008 08:00 24,0 C 70 % 1012,3 hPa 0,0 l/m 4,0 km/h (1 Bft) N-NE 1,00 h 0,051 mm 283 W/m 18,1 C 24,0 C 6,7 km/h (2 Bft)
04/08/2008 09:00 26,2 C 68 % 1012,3 hPa 0,0 l/m 6,4 km/h (2 Bft) E-NE 1,00 h 0,203 mm 465 W/m 19,7 C 26,2 C 9,4 km/h (2 Bft)
04/08/2008 10:00 26,5 C 71 % 1012,5 hPa 0,0 l/m 8,7 km/h (2 Bft) E 0,60 h 0,330 mm 473 W/m 20,8 C 26,5 C 12,9 km/h (3 Bft)
04/08/2008 11:00 28,2 C 64 % 1012,6 hPa 0,0 l/m 8,7 km/h (2 Bft) E 1,00 h 0,356 mm 815 W/m 20,7 C 28,2 C 14,5 km/h (3 Bft)
04/08/2008 12:00 28,4 C 63 % 1012,6 hPa 0,0 l/m 9,4 km/h (2 Bft) E 1,00 h 0,584 mm 841 W/m 20,7 C 28,4 C 15,1 km/h (3 Bft)
04/08/2008 13:00 29,1 C 62 % 1012,4 hPa 0,0 l/m 10,0 km/h (2 Bft) E 1,00 h 0,610 mm 842 W/m 21,0 C 29,1 C 16,6 km/h (3 Bft)
04/08/2008 14:00 29,2 C 60 % 1012,3 hPa 0,0 l/m 6,9 km/h (2 Bft) E 1,00 h 0,610 mm 820 W/m 20,5 C 29,2 C 13,3 km/h (3 Bft)
04/08/2008 15:00 30,0 C 57 % 1011,9 hPa 0,0 l/m 8,1 km/h (2 Bft) E-NE 1,00 h 0,584 mm 743 W/m 20,6 C 30,0 C 13,7 km/h (3 Bft)
04/08/2008 16:00 29,7 C 60 % 1011,7 hPa 0,0 l/m 7,4 km/h (2 Bft) E 1,00 h 0,559 mm 627 W/m 21,2 C 29,7 C 12,1 km/h (2 Bft)
04/08/2008 17:00 28,9 C 64 % 1011,3 hPa 0,0 l/m 5,6 km/h (1 Bft) E 0,97 h 0,483 mm 486 W/m 21,3 C 28,9 C 10,1 km/h (2 Bft)
04/08/2008 18:00 28,2 C 67 % 1010,9 hPa 0,0 l/m 4,9 km/h (1 Bft) E 0,97 h 0,356 mm 320 W/m 21,4 C 28,2 C 8,7 km/h (2 Bft)
04/08/2008 19:00 26,6 C 73 % 1010,7 hPa 0,0 l/m 3,3 km/h (1 Bft) E 0,93 h 0,229 mm 155 W/m 21,4 C 26,6 C 5,7 km/h (1 Bft)
04/08/2008 20:00 25,2 C 79 % 1010,8 hPa 0,0 l/m 0,5 km/h (0 Bft) E-NE 0,10 h 0,127 mm 24 W/m 21,2 C 25,2 C 1,5 km/h (1 Bft)
04/08/2008 21:00 23,6 C 84 % 1011,1 hPa 0,0 l/m 0,7 km/h (0 Bft) E-NE 0,00 h 0,025 mm 0 W/m 20,8 C 23,6 C 1,5 km/h (1 Bft)
04/08/2008 22:00 22,5 C 86 % 1011,2 hPa 0,0 l/m 0,1 km/h (0 Bft) E-NE 0,00 h 0,000 mm 0 W/m 20,0 C 22,5 C 0,5 km/h (0 Bft)
04/08/2008 23:00 22,3 C 87 % 1011,3 hPa 0,0 l/m 0,1 km/h (0 Bft) E-NE 0,00 h 0,025 mm 0 W/m 20,0 C 22,3 C 0,2 km/h (0 Bft)
05/08/2008 00:00 22,2 C 89 % 1011,4 hPa 0,0 l/m 1,4 km/h (1 Bft) E-NE 0,00 h 0,025 mm 0 W/m 20,2 C 22,2 C 2,6 km/h (1 Bft)
05/08/2008 01:00 21,8 C 90 % 1011,1 hPa 0,0 l/m 1,7 km/h (1 Bft) E-NE 0,00 h 0,025 mm 0 W/m 20,0 C 21,8 C 2,4 km/h (1 Bft)
05/08/2008 02:00 21,5 C 91 % 1010,7 hPa 0,0 l/m 1,8 km/h (1 Bft) E-NE 0,00 h 0,025 mm 0 W/m 19,9 C 21,5 C 2,9 km/h (1 Bft)
05/08/2008 03:00 21,1 C 91 % 1010,6 hPa 0,0 l/m 0,9 km/h (0 Bft) E-NE 0,00 h 0,025 mm 0 W/m 19,7 C 21,1 C 1,5 km/h (1 Bft)
05/08/2008 04:00 20,9 C 92 % 1010,6 hPa 0,0 l/m 0,2 km/h (0 Bft) E-NE 0,00 h 0,025 mm 0 W/m 19,6 C 20,9 C 0,5 km/h (0 Bft)
05/08/2008 05:00 21,1 C 93 % 1010,7 hPa 0,0 l/m 2,3 km/h (1 Bft) E-NE 0,00 h 0,025 mm 0 W/m 19,9 C 21,1 C 3,4 km/h (1 Bft)
05/08/2008 06:00 21,0 C 93 % 1010,7 hPa 0,0 l/m 2,2 km/h (1 Bft) NO 0,02 h 0,025 mm 11 W/m 19,8 C 21,0 C 4,2 km/h (1 Bft)
05/08/2008 07:00 21,4 C 93 % 1010,7 hPa 0,0 l/m 0,8 km/h (0 Bft) NO 0,18 h 0,000 mm 78 W/m 20,2 C 21,4 C 2,1 km/h (1 Bft)
05/08/2008 08:00 22,9 C 90 % 1010,6 hPa 0,0 l/m 1,4 km/h (1 Bft) NO 0,23 h 0,051 mm 172 W/m 21,1 C 22,9 C 3,1 km/h (1 Bft)
05/08/2008 09:00 25,5 C 78 % 1010,6 hPa 0,0 l/m 2,4 km/h (1 Bft) E 0,87 h 0,102 mm 444 W/m 21,2 C 25,5 C 4,5 km/h (1 Bft)
05/08/2008 10:00 27,3 C 70 % 1010,7 hPa 0,0 l/m 6,8 km/h (2 Bft) E 0,65 h 0,279 mm 468 W/m 21,4 C 27,3 C 10,6 km/h (2 Bft)
05/08/2008 11:00 28,4 C 69 % 1011,0 hPa 0,0 l/m 8,3 km/h (2 Bft) E 1,00 h 0,356 mm 764 W/m 22,0 C 28,4 C 13,9 km/h (3 Bft)
05/08/2008 12:00 29,2 C 64 % 1011,1 hPa 0,0 l/m 10,4 km/h (2 Bft) E 0,92 h 0,533 mm 814 W/m 21,8 C 29,2 C 15,8 km/h (3 Bft)
05/08/2008 13:00 29,1 C 64 % 1011,1 hPa 0,0 l/m 10,0 km/h (2 Bft) E 1,00 h 0,610 mm 844 W/m 21,5 C 29,1 C 15,3 km/h (3 Bft)
05/08/2008 14:00 29,7 C 62 % 1011,1 hPa 0,0 l/m 9,8 km/h (2 Bft) E 1,00 h 0,610 mm 837 W/m 21,7 C 29,7 C 16,3 km/h (3 Bft)
05/08/2008 15:00 30,0 C 62 % 1011,1 hPa 0,0 l/m 9,8 km/h (2 Bft) E 1,00 h 0,635 mm 756 W/m 21,8 C 30,0 C 15,5 km/h (3 Bft)
05/08/2008 16:00 30,3 C 61 % 1010,9 hPa 0,0 l/m 6,4 km/h (2 Bft) E 1,00 h 0,584 mm 631 W/m 22,0 C 30,3 C 11,3 km/h (2 Bft)
05/08/2008 17:00 29,9 C 62 % 1010,5 hPa 0,0 l/m 5,5 km/h (1 Bft) E 1,00 h 0,483 mm 480 W/m 21,8 C 29,9 C 10,0 km/h (2 Bft)
05/08/2008 18:00 28,5 C 65 % 1010,3 hPa 0,0 l/m 3,5 km/h (1 Bft) E-SE 1,00 h 0,356 mm 308 W/m 21,4 C 28,5 C 7,1 km/h (2 Bft)
05/08/2008 19:00 27,4 C 70 % 1010,2 hPa 0,0 l/m 2,0 km/h (1 Bft) E-SE 0,85 h 0,229 mm 136 W/m 21,5 C 27,4 C 4,2 km/h (1 Bft)
05/08/2008 20:00 25,9 C 76 % 1010,1 hPa 0,0 l/m 0,1 km/h (0 Bft) E-SE 0,03 h 0,102 mm 19 W/m 21,4 C 25,9 C 0,5 km/h (0 Bft)
05/08/2008 21:00 24,7 C 82 % 1010,4 hPa 0,0 l/m 0,0 km/h (0 Bft) N 0,00 h 0,025 mm 0 W/m 21,4 C 24,7 C 0,0 km/h (0 Bft)
05/08/2008 22:00 24,0 C 86 % 1010,9 hPa 0,0 l/m 0,1 km/h (0 Bft) E-SE 0,00 h 0,000 mm 0 W/m 21,5 C 24,0 C 0,2 km/h (0 Bft)
05/08/2008 23:00 23,3 C 89 % 1011,0 hPa 0,0 l/m 3,0 km/h (1 Bft) E-SE 0,00 h 0,025 mm 0 W/m 21,3 C 23,3 C 3,9 km/h (1 Bft)
06/08/2008 00:00 23,0 C 90 % 1011,1 hPa 0,0 l/m 2,6 km/h (1 Bft) E-SE 0,00 h 0,025 mm 0 W/m 21,2 C 23,0 C 4,0 km/h (1 Bft)
06/08/2008 01:00 22,5 C 91 % 1011,1 hPa 0,0 l/m 2,8 km/h (1 Bft) E-SE 0,00 h 0,025 mm 0 W/m 20,9 C 22,5 C 4,1 km/h (1 Bft)
06/08/2008 02:00 22,3 C 91 % 1011,0 hPa 0,0 l/m 1,3 km/h (1 Bft) E-SE 0,00 h 0,025 mm 0 W/m 20,7 C 22,3 C 2,1 km/h (1 Bft)
06/08/2008 03:00 21,9 C 91 % 1011,4 hPa 0,0 l/m 3,7 km/h (1 Bft) O 0,00 h 0,025 mm 0 W/m 20,4 C 21,9 C 5,1 km/h (1 Bft)
06/08/2008 04:00 21,8 C 92 % 1011,6 hPa 0,0 l/m 6,2 km/h (2 Bft) O 0,00 h 0,025 mm 0 W/m 20,4 C 21,8 C 8,6 km/h (2 Bft)
06/08/2008 05:00 22,0 C 92 % 1011,9 hPa 0,0 l/m 6,7 km/h (2 Bft) O-SO 0,00 h 0,025 mm 0 W/m 20,7 C 22,0 C 9,5 km/h (2 Bft)
06/08/2008 06:00 21,1 C 92 % 1011,1 hPa 0,0 l/m 3,0 km/h (1 Bft) N-NO 0,05 h 0,025 mm 14 W/m 19,7 C 21,1 C 5,2 km/h (1 Bft)
06/08/2008 07:00 21,8 C 92 % 1010,5 hPa 0,0 l/m 3,8 km/h (1 Bft) N 0,13 h 0,025 mm 64 W/m 20,4 C 21,8 C 6,4 km/h (2 Bft)
06/08/2008 08:00 24,6 C 77 % 1010,3 hPa 0,0 l/m 9,6 km/h (2 Bft) E-NE 1,00 h 0,051 mm 264 W/m 20,2 C 24,6 C 13,6 km/h (3 Bft)
06/08/2008 09:00 27,0 C 70 % 1011,6 hPa 0,0 l/m 7,5 km/h (2 Bft) S 0,83 h 0,203 mm 379 W/m 21,1 C 27,0 C 11,1 km/h (2 Bft)
06/08/2008 10:00 27,1 C 73 % 1012,5 hPa 0,0 l/m 6,9 km/h (2 Bft) SE 0,25 h 0,279 mm 328 W/m 21,8 C 27,1 C 11,5 km/h (2 Bft)
06/08/2008 11:00 27,8 C 72 % 1012,7 hPa 0,0 l/m 5,4 km/h (1 Bft) E 0,18 h 0,279 mm 318 W/m 22,2 C 27,8 C 10,0 km/h (2 Bft)
06/08/2008 12:00 27,9 C 71 % 1012,6 hPa 0,0 l/m 6,0 km/h (2 Bft) E 0,28 h 0,229 mm 446 W/m 22,2 C 27,9 C 9,7 km/h (2 Bft)
06/08/2008 13:00 30,1 C 63 % 1012,0 hPa 0,0 l/m 8,4 km/h (2 Bft) E 0,95 h 0,330 mm 803 W/m 22,1 C 30,1 C 12,8 km/h (3 Bft)
06/08/2008 14:00 31,1 C 59 % 1011,3 hPa 0,0 l/m 9,6 km/h (2 Bft) S 1,00 h 0,584 mm 803 W/m 22,2 C 31,1 C 14,7 km/h (3 Bft)
06/08/2008 15:00 31,6 C 58 % 1010,8 hPa 0,0 l/m 8,1 km/h (2 Bft) E 1,00 h 0,610 mm 739 W/m 22,2 C 31,6 C 14,1 km/h (3 Bft)
06/08/2008 16:00 30,9 C 63 % 1010,5 hPa 0,0 l/m 8,7 km/h (2 Bft) E 1,00 h 0,559 mm 618 W/m 23,0 C 30,9 C 14,3 km/h (3 Bft)
06/08/2008 17:00 29,8 C 66 % 1010,2 hPa 0,0 l/m 7,0 km/h (2 Bft) S-SE 1,00 h 0,483 mm 468 W/m 22,8 C 29,8 C 11,0 km/h (2 Bft)
06/08/2008 18:00 28,4 C 72 % 1010,4 hPa 0,0 l/m 6,8 km/h (2 Bft) S-SE 1,00 h 0,356 mm 284 W/m 22,8 C 28,4 C 10,6 km/h (2 Bft)
06/08/2008 19:00 27,0 C 77 % 1010,6 hPa 0,0 l/m 6,9 km/h (2 Bft) S-SE 0,60 h 0,229 mm 124 W/m 22,5 C 27,0 C 10,4 km/h (2 Bft)
06/08/2008 20:00 25,7 C 82 % 1011,1 hPa 0,0 l/m 3,0 km/h (1 Bft) S 0,00 h 0,127 mm 19 W/m 22,4 C 25,7 C 5,0 km/h (1 Bft)
06/08/2008 21:00 24,7 C 86 % 1011,2 hPa 0,0 l/m 0,0 km/h (0 Bft) N 0,00 h 0,025 mm 0 W/m 22,1 C 24,7 C 0,1 km/h (0 Bft)
06/08/2008 22:00 24,0 C 87 % 1011,2 hPa 0,0 l/m 0,0 km/h (0 Bft) N 0,00 h 0,000 mm 0 W/m 21,7 C 24,0 C 0,0 km/h (0 Bft)
06/08/2008 23:00 23,8 C 89 % 1011,1 hPa 0,0 l/m 1,9 km/h (1 Bft) S 0,00 h 0,025 mm 0 W/m 21,8 C 23,8 C 2,7 km/h (1 Bft)
07/08/2008 00:00 23,6 C 90 % 1011,0 hPa 0,0 l/m 3,0 km/h (1 Bft) S 0,00 h 0,025 mm 0 W/m 21,9 C 23,6 C 4,0 km/h (1 Bft)
07/08/2008 01:00 23,1 C 91 % 1011,0 hPa 0,0 l/m 3,5 km/h (1 Bft) O 0,00 h 0,025 mm 0 W/m 21,5 C 23,1 C 5,2 km/h (1 Bft)
07/08/2008 02:00 22,7 C 92 % 1011,1 hPa 0,0 l/m 2,6 km/h (1 Bft) O 0,00 h 0,025 mm 0 W/m 21,3 C 22,7 C 4,1 km/h (1 Bft)
07/08/2008 03:00 22,2 C 92 % 1010,9 hPa 0,0 l/m 2,1 km/h (1 Bft) O-NO 0,00 h 0,025 mm 0 W/m 20,9 C 22,2 C 3,9 km/h (1 Bft)
07/08/2008 04:00 21,9 C 92 % 1010,6 hPa 0,0 l/m 2,2 km/h (1 Bft) NO 0,00 h 0,025 mm 0 W/m 20,6 C 21,9 C 3,9 km/h (1 Bft)
07/08/2008 05:00 21,7 C 92 % 1010,5 hPa 0,0 l/m 0,7 km/h (0 Bft) NO 0,00 h 0,025 mm 0 W/m 20,4 C 21,7 C 1,1 km/h (0 Bft)
07/08/2008 06:00 21,6 C 92 % 1010,5 hPa 0,0 l/m 2,9 km/h (1 Bft) NO 0,05 h 0,025 mm 14 W/m 20,2 C 21,6 C 4,0 km/h (1 Bft)
07/08/2008 07:00 21,9 C 91 % 1010,6 hPa 0,0 l/m 0,8 km/h (0 Bft) NO 0,12 h 0,025 mm 61 W/m 20,2 C 21,9 C 1,9 km/h (1 Bft)
07/08/2008 08:00 24,2 C 81 % 1010,6 hPa 0,0 l/m 0,3 km/h (0 Bft) NO 1,00 h 0,051 mm 237 W/m 20,6 C 24,2 C 1,4 km/h (1 Bft)
07/08/2008 09:00 27,0 C 69 % 1010,5 hPa 0,0 l/m 2,4 km/h (1 Bft) E 1,00 h 0,152 mm 413 W/m 20,8 C 27,0 C 4,2 km/h (1 Bft)
07/08/2008 10:00 29,1 C 59 % 1010,4 hPa 0,0 l/m 4,5 km/h (1 Bft) SE 1,00 h 0,279 mm 573 W/m 20,4 C 29,1 C 7,9 km/h (2 Bft)
07/08/2008 11:00 30,6 C 50 % 1010,5 hPa 0,0 l/m 7,1 km/h (2 Bft) S 1,00 h 0,406 mm 699 W/m 19,0 C 30,6 C 11,6 km/h (2 Bft)
07/08/2008 12:00 31,3 C 52 % 1010,1 hPa 0,0 l/m 9,1 km/h (2 Bft) S 1,00 h 0,533 mm 780 W/m 20,3 C 31,3 C 15,0 km/h (3 Bft)
07/08/2008 13:00 30,8 C 54 % 1010,2 hPa 0,0 l/m 11,4 km/h (2 Bft) S 1,00 h 0,610 mm 812 W/m 20,4 C 30,8 C 17,3 km/h (3 Bft)
07/08/2008 14:00 30,1 C 57 % 1010,1 hPa 0,0 l/m 12,9 km/h (3 Bft) S 1,00 h 0,635 mm 787 W/m 20,5 C 30,1 C 18,8 km/h (3 Bft)
07/08/2008 15:00 30,1 C 56 % 1009,7 hPa 0,0 l/m 8,8 km/h (2 Bft) S 0,67 h 0,635 mm 590 W/m 20,3 C 30,1 C 13,9 km/h (3 Bft)
07/08/2008 16:00 29,4 C 64 % 1009,3 hPa 0,0 l/m 8,4 km/h (2 Bft) E 0,77 h 0,483 mm 464 W/m 21,8 C 29,4 C 13,0 km/h (3 Bft)
07/08/2008 17:00 28,2 C 68 % 1009,0 hPa 0,0 l/m 8,2 km/h (2 Bft) E 0,53 h 0,356 mm 322 W/m 21,7 C 28,2 C 11,9 km/h (2 Bft)
07/08/2008 18:00 27,4 C 72 % 1008,7 hPa 0,0 l/m 4,9 km/h (1 Bft) E 0,08 h 0,254 mm 160 W/m 22,0 C 27,4 C 7,4 km/h (2 Bft)
07/08/2008 19:00 26,1 C 77 % 1008,5 hPa 0,0 l/m 3,7 km/h (1 Bft) E 0,08 h 0,127 mm 78 W/m 21,8 C 26,1 C 5,9 km/h (2 Bft)
07/08/2008 20:00 25,1 C 81 % 1007,8 hPa 0,0 l/m 1,0 km/h (0 Bft) E 0,07 h 0,076 mm 16 W/m 21,5 C 25,1 C 1,7 km/h (1 Bft)
07/08/2008 21:00 24,2 C 84 % 1007,9 hPa 0,0 l/m 1,3 km/h (1 Bft) S-SO 0,00 h 0,025 mm 0 W/m 21,4 C 24,2 C 2,0 km/h (1 Bft)
07/08/2008 22:00 23,7 C 87 % 1008,2 hPa 0,0 l/m 1,2 km/h (1 Bft) S-SO 0,00 h 0,000 mm 0 W/m 21,4 C 23,7 C 2,2 km/h (1 Bft)
07/08/2008 23:00 23,3 C 88 % 1008,2 hPa 0,0 l/m 2,6 km/h (1 Bft) N-NO 0,00 h 0,025 mm 0 W/m 21,2 C 23,3 C 3,5 km/h (1 Bft)
08/08/2008 00:00 23,0 C 90 % 1008,1 hPa 0,0 l/m 5,3 km/h (1 Bft) O 0,00 h 0,025 mm 0 W/m 21,2 C 23,0 C 7,2 km/h (2 Bft)
08/08/2008 01:00 22,8 C 91 % 1008,0 hPa 0,0 l/m 4,7 km/h (1 Bft) O-SO 0,00 h 0,025 mm 0 W/m 21,3 C 22,8 C 6,9 km/h (2 Bft)
08/08/2008 02:00 22,4 C 92 % 1007,3 hPa 0,0 l/m 3,7 km/h (1 Bft) O-NO 0,00 h 0,025 mm 0 W/m 21,0 C 22,4 C 5,3 km/h (1 Bft)
08/08/2008 03:00 21,8 C 93 % 1006,8 hPa 0,0 l/m 1,8 km/h (1 Bft) O-NO 0,00 h 0,025 mm 0 W/m 20,6 C 21,8 C 3,1 km/h (1 Bft)
08/08/2008 04:00 21,3 C 93 % 1006,3 hPa 0,0 l/m 2,3 km/h (1 Bft) N-NO 0,00 h 0,025 mm 0 W/m 20,1 C 21,3 C 3,2 km/h (1 Bft)
08/08/2008 05:00 21,1 C 93 % 1006,0 hPa 0,0 l/m 2,5 km/h (1 Bft) NO 0,00 h 0,025 mm 0 W/m 20,0 C 21,1 C 4,0 km/h (1 Bft)
08/08/2008 06:00 21,0 C 93 % 1005,9 hPa 0,2 l/m 1,2 km/h (1 Bft) NO 0,03 h 0,025 mm 13 W/m 19,8 C 21,0 C 2,1 km/h (1 Bft)
08/08/2008 07:00 21,2 C 93 % 1006,2 hPa 0,0 l/m 0,4 km/h (0 Bft) NO 0,15 h 0,000 mm 56 W/m 20,0 C 21,2 C 1,3 km/h (1 Bft)
08/08/2008 08:00 23,3 C 78 % 1006,3 hPa 0,0 l/m 0,7 km/h (0 Bft) NO 0,67 h 0,025 mm 210 W/m 19,1 C 23,3 C 2,1 km/h (1 Bft)
08/08/2008 09:00 26,0 C 74 % 1005,9 hPa 0,0 l/m 3,3 km/h (1 Bft) S 0,95 h 0,127 mm 451 W/m 20,9 C 26,0 C 6,0 km/h (2 Bft)
08/08/2008 10:00 28,2 C 65 % 1005,8 hPa 0,0 l/m 6,2 km/h (2 Bft) E 0,97 h 0,305 mm 625 W/m 21,0 C 28,2 C 10,4 km/h (2 Bft)
08/08/2008 11:00 29,3 C 62 % 1005,4 hPa 0,0 l/m 8,8 km/h (2 Bft) S 0,92 h 0,432 mm 723 W/m 21,1 C 29,3 C 14,4 km/h (3 Bft)
08/08/2008 12:00 31,6 C 44 % 1004,5 hPa 0,0 l/m 7,7 km/h (2 Bft) E-NE 1,00 h 0,533 mm 832 W/m 17,7 C 31,6 C 12,6 km/h (3 Bft)
08/08/2008 13:00 32,8 C 26 % 1003,6 hPa 0,0 l/m 28,5 km/h (4 Bft) SO 1,00 h 0,660 mm 867 W/m 10,6 C 32,8 C 37,7 km/h (5 Bft)
08/08/2008 14:00 33,8 C 20 % 1002,6 hPa 0,0 l/m 32,4 km/h (5 Bft) SO 1,00 h 0,991 mm 856 W/m 7,4 C 33,8 C 43,4 km/h (6 Bft)
08/08/2008 15:00 34,3 C 18 % 1001,8 hPa 0,0 l/m 34,4 km/h (5 Bft) SO 1,00 h 1,067 mm 779 W/m 6,4 C 34,3 C 44,9 km/h (6 Bft)
08/08/2008 16:00 34,5 C 17 % 1001,3 hPa 0,0 l/m 34,9 km/h (5 Bft) SO 1,00 h 1,067 mm 661 W/m 5,8 C 34,5 C 46,1 km/h (6 Bft)
08/08/2008 17:00 34,4 C 16 % 1001,0 hPa 0,0 l/m 29,3 km/h (5 Bft) O-SO 1,00 h 0,991 mm 512 W/m 5,3 C 34,4 C 38,3 km/h (5 Bft)
08/08/2008 18:00 33,5 C 20 % 1000,9 hPa 0,0 l/m 26,2 km/h (4 Bft) SO 1,00 h 0,813 mm 323 W/m 7,1 C 33,5 C 34,2 km/h (5 Bft)
08/08/2008 19:00 31,5 C 24 % 1000,9 hPa 0,0 l/m 22,5 km/h (4 Bft) O-SO 0,52 h 0,610 mm 134 W/m 8,5 C 31,5 C 29,0 km/h (5 Bft)
08/08/2008 20:00 29,0 C 30 % 1001,3 hPa 0,0 l/m 10,9 km/h (2 Bft) O-SO 0,10 h 0,406 mm 21 W/m 9,5 C 29,0 C 15,9 km/h (3 Bft)
08/08/2008 21:00 26,3 C 61 % 1002,4 hPa 0,0 l/m 5,2 km/h (1 Bft) S-SO 0,00 h 0,152 mm 0 W/m 18,1 C 26,3 C 7,7 km/h (2 Bft)
08/08/2008 22:00 24,6 C 74 % 1003,1 hPa 0,0 l/m 8,3 km/h (2 Bft) SO 0,00 h 0,051 mm 0 W/m 19,5 C 24,6 C 10,7 km/h (2 Bft)
08/08/2008 23:00 23,7 C 82 % 1004,0 hPa 0,0 l/m 14,2 km/h (3 Bft) O-SO 0,00 h 0,051 mm 0 W/m 20,5 C 23,7 C 18,8 km/h (3 Bft)
09/08/2008 00:00 23,3 C 82 % 1004,6 hPa 0,0 l/m 13,4 km/h (3 Bft) O-SO 0,00 h 0,051 mm 0 W/m 20,0 C 23,3 C 17,7 km/h (3 Bft)
09/08/2008 01:00 22,7 C 79 % 1005,1 hPa 0,0 l/m 10,1 km/h (2 Bft) O-SO 0,00 h 0,051 mm 0 W/m 18,9 C 22,7 C 14,3 km/h (3 Bft)
09/08/2008 02:00 22,1 C 70 % 1005,1 hPa 0,0 l/m 10,6 km/h (2 Bft) O 0,00 h 0,051 mm 0 W/m 16,2 C 22,1 C 14,8 km/h (3 Bft)
09/08/2008 03:00 22,4 C 59 % 1005,4 hPa 0,0 l/m 11,4 km/h (2 Bft) O 0,00 h 0,076 mm 0 W/m 14,0 C 22,4 C 15,9 km/h (3 Bft)
09/08/2008 04:00 21,6 C 58 % 1006,0 hPa 0,0 l/m 8,2 km/h (2 Bft) O 0,00 h 0,102 mm 0 W/m 12,9 C 21,6 C 11,0 km/h (2 Bft)
09/08/2008 05:00 20,7 C 51 % 1006,5 hPa 0,0 l/m 3,8 km/h (1 Bft) O-NO 0,00 h 0,076 mm 0 W/m 10,2 C 20,7 C 5,6 km/h (1 Bft)
09/08/2008 06:00 20,0 C 53 % 1007,0 hPa 0,0 l/m 3,7 km/h (1 Bft) O 0,02 h 0,076 mm 13 W/m 10,2 C 20,0 C 5,8 km/h (2 Bft)
09/08/2008 07:00 20,5 C 52 % 1007,5 hPa 0,0 l/m 5,8 km/h (2 Bft) O-NO 0,03 h 0,051 mm 51 W/m 10,4 C 20,5 C 8,0 km/h (2 Bft)
09/08/2008 08:00 22,9 C 47 % 1007,9 hPa 0,0 l/m 2,7 km/h (1 Bft) O-NO 0,93 h 0,076 mm 271 W/m 11,1 C 22,9 C 4,6 km/h (1 Bft)
09/08/2008 09:00 26,1 C 43 % 1008,2 hPa 0,0 l/m 4,1 km/h (1 Bft) S-SO 1,00 h 0,203 mm 448 W/m 12,6 C 26,1 C 7,1 km/h (2 Bft)
09/08/2008 10:00 27,5 C 37 % 1008,6 hPa 0,0 l/m 10,0 km/h (2 Bft) SO 1,00 h 0,330 mm 603 W/m 11,4 C 27,5 C 14,7 km/h (3 Bft)
09/08/2008 11:00 29,0 C 37 % 1009,0 hPa 0,0 l/m 9,9 km/h (2 Bft) SO 1,00 h 0,508 mm 727 W/m 12,8 C 29,0 C 14,9 km/h (3 Bft)
09/08/2008 12:00 30,9 C 31 % 1009,0 hPa 0,0 l/m 9,0 km/h (2 Bft) S-SE 1,00 h 0,584 mm 811 W/m 11,6 C 30,9 C 14,0 km/h (3 Bft)
09/08/2008 13:00 31,3 C 27 % 1008,8 hPa 0,0 l/m 13,8 km/h (3 Bft) S 1,00 h 0,660 mm 848 W/m 10,1 C 31,3 C 20,0 km/h (4 Bft)
09/08/2008 14:00 31,1 C 27 % 1009,0 hPa 0,0 l/m 15,6 km/h (3 Bft) S-SE 1,00 h 0,762 mm 828 W/m 9,7 C 31,1 C 22,4 km/h (4 Bft)
09/08/2008 15:00 30,2 C 28 % 1009,2 hPa 0,0 l/m 16,3 km/h (3 Bft) S-SE 1,00 h 0,762 mm 757 W/m 9,7 C 30,2 C 22,8 km/h (4 Bft)
09/08/2008 16:00 29,8 C 28 % 1009,4 hPa 0,0 l/m 11,0 km/h (2 Bft) S 1,00 h 0,711 mm 639 W/m 9,3 C 29,8 C 17,0 km/h (3 Bft)
09/08/2008 17:00 29,7 C 27 % 1009,2 hPa 0,0 l/m 8,3 km/h (2 Bft) SE 1,00 h 0,559 mm 490 W/m 8,8 C 29,7 C 13,2 km/h (3 Bft)
09/08/2008 18:00 28,8 C 29 % 1009,2 hPa 0,0 l/m 10,5 km/h (2 Bft) S 1,00 h 0,432 mm 321 W/m 9,2 C 28,8 C 14,9 km/h (3 Bft)
09/08/2008 19:00 28,1 C 30 % 1009,2 hPa 0,0 l/m 8,8 km/h (2 Bft) S-SO 0,98 h 0,356 mm 150 W/m 8,7 C 28,1 C 12,1 km/h (2 Bft)
09/08/2008 20:00 25,4 C 35 % 1009,6 hPa 0,0 l/m 6,7 km/h (2 Bft) O-SO 0,00 h 0,203 mm 13 W/m 8,8 C 25,4 C 8,5 km/h (2 Bft)
09/08/2008 21:00 24,1 C 38 % 1010,0 hPa 0,0 l/m 6,0 km/h (2 Bft) O 0,00 h 0,102 mm 0 W/m 8,7 C 24,1 C 7,6 km/h (2 Bft)
09/08/2008 22:00 23,0 C 39 % 1010,2 hPa 0,0 l/m 6,5 km/h (2 Bft) O-NO 0,00 h 0,076 mm 0 W/m 8,4 C 23,0 C 9,3 km/h (2 Bft)
09/08/2008 23:00 22,6 C 37 % 1010,3 hPa 0,0 l/m 4,5 km/h (1 Bft) NO 0,00 h 0,102 mm 0 W/m 7,2 C 22,6 C 7,1 km/h (2 Bft)
10/08/2008 00:00 22,1 C 36 % 1010,5 hPa 0,0 l/m 2,7 km/h (1 Bft) NO 0,00 h 0,102 mm 0 W/m 6,5 C 22,1 C 5,0 km/h (1 Bft)
10/08/2008 01:00 21,4 C 38 % 1010,2 hPa 0,0 l/m 4,2 km/h (1 Bft) O-NO 0,00 h 0,076 mm 0 W/m 6,5 C 21,4 C 6,8 km/h (2 Bft)
10/08/2008 02:00 21,3 C 39 % 1010,2 hPa 0,0 l/m 4,0 km/h (1 Bft) NO 0,00 h 0,102 mm 0 W/m 6,9 C 21,3 C 6,5 km/h (2 Bft)
10/08/2008 03:00 21,3 C 39 % 1010,0 hPa 0,0 l/m 3,4 km/h (1 Bft) NO 0,00 h 0,076 mm 0 W/m 6,9 C 21,3 C 5,1 km/h (1 Bft)
10/08/2008 04:00 21,0 C 42 % 1009,8 hPa 0,0 l/m 3,8 km/h (1 Bft) NO 0,00 h 0,076 mm 0 W/m 7,5 C 21,0 C 5,9 km/h (2 Bft)
10/08/2008 05:00 20,3 C 45 % 1009,8 hPa 0,0 l/m 1,5 km/h (1 Bft) NO 0,00 h 0,076 mm 0 W/m 8,0 C 20,3 C 2,9 km/h (1 Bft)
10/08/2008 06:00 18,8 C 51 % 1010,1 hPa 0,0 l/m 0,3 km/h (0 Bft) NO 0,03 h 0,051 mm 11 W/m 8,5 C 18,8 C 0,9 km/h (0 Bft)
10/08/2008 07:00 19,3 C 52 % 1010,3 hPa 0,0 l/m 1,3 km/h (1 Bft) O-NO 0,17 h 0,025 mm 54 W/m 9,1 C 19,3 C 2,7 km/h (1 Bft)
10/08/2008 08:00 22,2 C 47 % 1010,6 hPa 0,0 l/m 0,6 km/h (0 Bft) O-NO 0,93 h 0,051 mm 269 W/m 10,3 C 22,2 C 2,3 km/h (1 Bft)
10/08/2008 09:00 26,2 C 36 % 1010,8 hPa 0,0 l/m 4,3 km/h (1 Bft) E-NE 1,00 h 0,178 mm 452 W/m 10,0 C 26,2 C 6,7 km/h (2 Bft)
10/08/2008 10:00 29,2 C 32 % 1010,9 hPa 0,0 l/m 8,7 km/h (2 Bft) E-NE 1,00 h 0,356 mm 609 W/m 10,9 C 29,2 C 12,6 km/h (3 Bft)
10/08/2008 11:00 29,9 C 32 % 1011,1 hPa 0,0 l/m 9,0 km/h (2 Bft) E 1,00 h 0,508 mm 725 W/m 11,1 C 29,9 C 14,5 km/h (3 Bft)
10/08/2008 12:00 29,2 C 44 % 1011,2 hPa 0,0 l/m 10,6 km/h (2 Bft) E 1,00 h 0,610 mm 821 W/m 15,6 C 29,2 C 16,2 km/h (3 Bft)
10/08/2008 13:00 28,4 C 53 % 1011,2 hPa 0,0 l/m 9,2 km/h (2 Bft) E 1,00 h 0,635 mm 850 W/m 17,7 C 28,4 C 14,4 km/h (3 Bft)
10/08/2008 14:00 29,2 C 40 % 1011,0 hPa 0,0 l/m 9,0 km/h (2 Bft) E 1,00 h 0,635 mm 829 W/m 14,1 C 29,2 C 14,3 km/h (3 Bft)
10/08/2008 15:00 29,0 C 40 % 1010,7 hPa 0,0 l/m 9,8 km/h (2 Bft) E 1,00 h 0,635 mm 761 W/m 13,8 C 29,0 C 15,1 km/h (3 Bft)
10/08/2008 16:00 28,8 C 41 % 1010,4 hPa 0,0 l/m 8,5 km/h (2 Bft) E-NE 1,00 h 0,610 mm 588 W/m 14,1 C 28,8 C 13,4 km/h (3 Bft)
10/08/2008 17:00 27,5 C 50 % 1010,2 hPa 0,0 l/m 6,3 km/h (2 Bft) E-NE 0,88 h 0,483 mm 414 W/m 16,1 C 27,5 C 9,6 km/h (2 Bft)
10/08/2008 18:00 26,4 C 58 % 1009,9 hPa 0,0 l/m 3,5 km/h (1 Bft) E 0,97 h 0,330 mm 317 W/m 17,4 C 26,4 C 6,9 km/h (2 Bft)
10/08/2008 19:00 25,6 C 62 % 1009,7 hPa 0,0 l/m 2,0 km/h (1 Bft) E-SE 0,98 h 0,229 mm 157 W/m 17,6 C 25,6 C 4,2 km/h (1 Bft)
10/08/2008 20:00 23,2 C 68 % 1009,5 hPa 0,0 l/m 1,1 km/h (1 Bft) E-SE 0,12 h 0,127 mm 22 W/m 17,0 C 23,2 C 2,8 km/h (1 Bft)
10/08/2008 21:00 21,3 C 77 % 1009,6 hPa 0,0 l/m 0,5 km/h (0 Bft) E-SE 0,00 h 0,025 mm 0 W/m 17,1 C 21,3 C 0,9 km/h (0 Bft)
10/08/2008 22:00 20,6 C 81 % 1009,7 hPa 0,0 l/m 0,0 km/h (0 Bft) N 0,00 h 0,000 mm 0 W/m 17,2 C 20,6 C 0,0 km/h (0 Bft)
10/08/2008 23:00 20,0 C 83 % 1009,5 hPa 0,0 l/m 0,1 km/h (0 Bft) E-SE 0,00 h 0,025 mm 0 W/m 17,1 C 20,0 C 0,4 km/h (0 Bft)
Min-Date _ 10/08/08 08/08/08 08/08/08 - 04/08/08 - - - - 08/08/08 10/08/08 04/08/08
_ Min-Heure 06:35 15:50 18:45 - 00:00 - - - - 17:40 06:35 00:00
Minimum _ 18,4 C 16 % 1000,8 hPa - 0,0 km/h (0 Bft) - - - - 4,8 C 18,4 C 0,0 km/h (0 Bft)
Max-Date _ 08/08/08 08/08/08 04/08/08 08/08/08 08/08/08 - 04/08/08 08/08/08 05/08/08 06/08/08 08/08/08 08/08/08
_ Max-Heure 16:10 01:17 00:00 06:21 16:44 - 06:36 15:00 12:33 17:06 16:10 14:31
Maximum _ 35,1 C 95 % 1013,9 hPa 0,2 l/m 46,7 km/h
SO (6 Bft)
- 0,02 h 1,067 mm 1007 W/m 23,3 C 35,1 C 57,9 km/h
SO (7 Bft)
Moyenne _ 25,5 C 66 % 1009,5 hPa #0,2 l/m 6,2 km/h (2 Bft) E #76:29 h #41,367 mm 441 W/m 17,5 C 25,5 C 9,3 km/h (2 Bft)
Roquefort les pins